sensor_id;sensor_type;location;lat;lon;timestamp;P1;durP1;ratioP1;P2;durP2;ratioP2
4583;SDS011;2304;47.606;12.186;2024-03-08T00:00:14;25.30;;;15.47;;
4583;SDS011;2304;47.606;12.186;2024-03-08T00:05:18;28.27;;;16.40;;
4583;SDS011;2304;47.606;12.186;2024-03-08T00:10:20;35.67;;;16.10;;
4583;SDS011;2304;47.606;12.186;2024-03-08T00:15:23;27.77;;;16.23;;
4583;SDS011;2304;47.606;12.186;2024-03-08T00:20:25;26.07;;;14.57;;
4583;SDS011;2304;47.606;12.186;2024-03-08T00:25:28;27.33;;;16.00;;
4583;SDS011;2304;47.606;12.186;2024-03-08T00:30:31;28.33;;;15.10;;
4583;SDS011;2304;47.606;12.186;2024-03-08T00:35:36;24.50;;;14.93;;
4583;SDS011;2304;47.606;12.186;2024-03-08T00:40:38;26.50;;;15.17;;
4583;SDS011;2304;47.606;12.186;2024-03-08T00:45:42;31.30;;;16.97;;
4583;SDS011;2304;47.606;12.186;2024-03-08T00:50:44;32.10;;;16.67;;
4583;SDS011;2304;47.606;12.186;2024-03-08T00:55:46;26.53;;;16.80;;
4583;SDS011;2304;47.606;12.186;2024-03-08T01:00:50;29.20;;;17.43;;
4583;SDS011;2304;47.606;12.186;2024-03-08T01:05:52;25.50;;;15.43;;
4583;SDS011;2304;47.606;12.186;2024-03-08T01:11:04;28.63;;;16.30;;
4583;SDS011;2304;47.606;12.186;2024-03-08T01:16:07;27.43;;;14.70;;
4583;SDS011;2304;47.606;12.186;2024-03-08T01:21:09;27.03;;;14.83;;
4583;SDS011;2304;47.606;12.186;2024-03-08T01:26:11;25.50;;;15.00;;
4583;SDS011;2304;47.606;12.186;2024-03-08T01:31:16;24.30;;;14.30;;
4583;SDS011;2304;47.606;12.186;2024-03-08T01:36:18;30.53;;;16.80;;
4583;SDS011;2304;47.606;12.186;2024-03-08T01:41:20;27.73;;;15.47;;
4583;SDS011;2304;47.606;12.186;2024-03-08T01:51:40;32.73;;;17.70;;
4583;SDS011;2304;47.606;12.186;2024-03-08T02:02:42;28.83;;;16.30;;
4583;SDS011;2304;47.606;12.186;2024-03-08T02:07:44;30.07;;;17.40;;
4583;SDS011;2304;47.606;12.186;2024-03-08T02:12:46;26.60;;;17.00;;
4583;SDS011;2304;47.606;12.186;2024-03-08T02:17:50;29.63;;;16.40;;
4583;SDS011;2304;47.606;12.186;2024-03-08T02:22:54;31.93;;;16.10;;
4583;SDS011;2304;47.606;12.186;2024-03-08T02:27:56;33.97;;;17.80;;
4583;SDS011;2304;47.606;12.186;2024-03-08T02:32:58;33.27;;;18.40;;
4583;SDS011;2304;47.606;12.186;2024-03-08T02:38:02;29.03;;;16.87;;
4583;SDS011;2304;47.606;12.186;2024-03-08T02:43:04;38.10;;;19.13;;
4583;SDS011;2304;47.606;12.186;2024-03-08T02:48:06;31.90;;;17.37;;
4583;SDS011;2304;47.606;12.186;2024-03-08T02:53:09;34.97;;;19.50;;
4583;SDS011;2304;47.606;12.186;2024-03-08T02:58:12;35.80;;;19.63;;
4583;SDS011;2304;47.606;12.186;2024-03-08T03:03:14;32.00;;;18.63;;
4583;SDS011;2304;47.606;12.186;2024-03-08T03:08:18;36.23;;;18.50;;
4583;SDS011;2304;47.606;12.186;2024-03-08T03:13:20;34.97;;;18.20;;
4583;SDS011;2304;47.606;12.186;2024-03-08T03:18:22;39.80;;;22.10;;
4583;SDS011;2304;47.606;12.186;2024-03-08T03:23:25;34.57;;;19.13;;
4583;SDS011;2304;47.606;12.186;2024-03-08T03:28:27;33.73;;;19.50;;
4583;SDS011;2304;47.606;12.186;2024-03-08T03:33:29;37.50;;;20.30;;
4583;SDS011;2304;47.606;12.186;2024-03-08T03:38:35;44.73;;;22.10;;
4583;SDS011;2304;47.606;12.186;2024-03-08T03:43:37;39.63;;;19.10;;
4583;SDS011;2304;47.606;12.186;2024-03-08T03:48:39;38.10;;;19.70;;
4583;SDS011;2304;47.606;12.186;2024-03-08T03:53:44;42.10;;;21.07;;
4583;SDS011;2304;47.606;12.186;2024-03-08T03:58:46;37.93;;;20.20;;
4583;SDS011;2304;47.606;12.186;2024-03-08T04:03:49;35.00;;;20.80;;
4583;SDS011;2304;47.606;12.186;2024-03-08T04:08:53;38.97;;;17.37;;
4583;SDS011;2304;47.606;12.186;2024-03-08T04:13:55;35.27;;;18.60;;
4583;SDS011;2304;47.606;12.186;2024-03-08T04:18:57;34.27;;;18.47;;
4583;SDS011;2304;47.606;12.186;2024-03-08T04:24:00;37.40;;;19.23;;
4583;SDS011;2304;47.606;12.186;2024-03-08T04:29:02;39.50;;;18.60;;
4583;SDS011;2304;47.606;12.186;2024-03-08T04:34:04;32.60;;;18.23;;
4583;SDS011;2304;47.606;12.186;2024-03-08T04:39:07;33.17;;;18.07;;
4583;SDS011;2304;47.606;12.186;2024-03-08T04:44:14;36.33;;;18.20;;
4583;SDS011;2304;47.606;12.186;2024-03-08T04:49:16;38.70;;;19.47;;
4583;SDS011;2304;47.606;12.186;2024-03-08T04:54:19;36.23;;;20.77;;
4583;SDS011;2304;47.606;12.186;2024-03-08T04:59:21;38.23;;;18.33;;
4583;SDS011;2304;47.606;12.186;2024-03-08T05:04:24;39.27;;;18.53;;
4583;SDS011;2304;47.606;12.186;2024-03-08T05:09:27;30.40;;;17.27;;
4583;SDS011;2304;47.606;12.186;2024-03-08T05:14:31;39.60;;;17.87;;
4583;SDS011;2304;47.606;12.186;2024-03-08T05:19:35;32.17;;;17.00;;
4583;SDS011;2304;47.606;12.186;2024-03-08T05:24:39;31.07;;;17.27;;
4583;SDS011;2304;47.606;12.186;2024-03-08T05:29:40;28.47;;;16.30;;
4583;SDS011;2304;47.606;12.186;2024-03-08T05:34:43;28.17;;;14.80;;
4583;SDS011;2304;47.606;12.186;2024-03-08T05:39:47;35.07;;;17.70;;
4583;SDS011;2304;47.606;12.186;2024-03-08T05:44:49;27.00;;;15.60;;
4583;SDS011;2304;47.606;12.186;2024-03-08T05:49:50;30.00;;;15.33;;
4583;SDS011;2304;47.606;12.186;2024-03-08T05:54:54;33.30;;;16.63;;
4583;SDS011;2304;47.606;12.186;2024-03-08T05:59:56;33.63;;;16.10;;
4583;SDS011;2304;47.606;12.186;2024-03-08T06:04:58;35.67;;;17.60;;
4583;SDS011;2304;47.606;12.186;2024-03-08T06:10:03;31.27;;;15.37;;
4583;SDS011;2304;47.606;12.186;2024-03-08T06:15:07;33.77;;;14.93;;
4583;SDS011;2304;47.606;12.186;2024-03-08T06:20:10;29.77;;;16.00;;
4583;SDS011;2304;47.606;12.186;2024-03-08T06:25:14;26.97;;;14.73;;
4583;SDS011;2304;47.606;12.186;2024-03-08T06:30:16;30.50;;;16.80;;
4583;SDS011;2304;47.606;12.186;2024-03-08T06:35:21;34.40;;;16.47;;
4583;SDS011;2304;47.606;12.186;2024-03-08T06:40:24;36.43;;;17.20;;
4583;SDS011;2304;47.606;12.186;2024-03-08T06:45:26;31.50;;;16.30;;
4583;SDS011;2304;47.606;12.186;2024-03-08T06:50:28;35.40;;;16.70;;
4583;SDS011;2304;47.606;12.186;2024-03-08T06:55:33;35.17;;;17.63;;
4583;SDS011;2304;47.606;12.186;2024-03-08T07:00:35;29.63;;;15.97;;
4583;SDS011;2304;47.606;12.186;2024-03-08T07:05:37;31.97;;;15.30;;
4583;SDS011;2304;47.606;12.186;2024-03-08T07:10:49;32.97;;;16.97;;
4583;SDS011;2304;47.606;12.186;2024-03-08T07:15:51;36.97;;;16.83;;
4583;SDS011;2304;47.606;12.186;2024-03-08T07:20:53;30.87;;;16.60;;
4583;SDS011;2304;47.606;12.186;2024-03-08T07:25:56;33.73;;;16.77;;
4583;SDS011;2304;47.606;12.186;2024-03-08T07:30:58;35.17;;;17.53;;
4583;SDS011;2304;47.606;12.186;2024-03-08T07:36:17;31.73;;;15.57;;
4583;SDS011;2304;47.606;12.186;2024-03-08T07:41:20;31.67;;;16.17;;
4583;SDS011;2304;47.606;12.186;2024-03-08T07:46:22;30.30;;;16.77;;
4583;SDS011;2304;47.606;12.186;2024-03-08T07:51:24;24.37;;;13.87;;
4583;SDS011;2304;47.606;12.186;2024-03-08T07:56:27;28.57;;;15.10;;
4583;SDS011;2304;47.606;12.186;2024-03-08T08:01:29;26.27;;;14.80;;
4583;SDS011;2304;47.606;12.186;2024-03-08T08:06:31;21.43;;;11.47;;
4583;SDS011;2304;47.606;12.186;2024-03-08T08:11:34;26.63;;;14.03;;
4583;SDS011;2304;47.606;12.186;2024-03-08T08:16:36;23.33;;;13.07;;
4583;SDS011;2304;47.606;12.186;2024-03-08T08:21:46;22.37;;;12.63;;
4583;SDS011;2304;47.606;12.186;2024-03-08T08:26:53;18.53;;;9.93;;
4583;SDS011;2304;47.606;12.186;2024-03-08T08:31:57;21.00;;;10.63;;
4583;SDS011;2304;47.606;12.186;2024-03-08T08:36:59;18.67;;;10.00;;
4583;SDS011;2304;47.606;12.186;2024-03-08T08:42:03;18.17;;;10.37;;
4583;SDS011;2304;47.606;12.186;2024-03-08T08:47:05;21.13;;;9.63;;
4583;SDS011;2304;47.606;12.186;2024-03-08T08:52:07;17.83;;;8.90;;
4583;SDS011;2304;47.606;12.186;2024-03-08T08:57:19;16.90;;;9.27;;
4583;SDS011;2304;47.606;12.186;2024-03-08T09:02:21;14.63;;;8.40;;
4583;SDS011;2304;47.606;12.186;2024-03-08T09:07:22;17.70;;;9.00;;
4583;SDS011;2304;47.606;12.186;2024-03-08T09:12:26;14.43;;;7.80;;
4583;SDS011;2304;47.606;12.186;2024-03-08T09:17:28;11.37;;;7.43;;
4583;SDS011;2304;47.606;12.186;2024-03-08T09:22:30;13.27;;;7.93;;
4583;SDS011;2304;47.606;12.186;2024-03-08T09:27:33;12.07;;;7.03;;
4583;SDS011;2304;47.606;12.186;2024-03-08T09:32:35;10.90;;;6.40;;
4583;SDS011;2304;47.606;12.186;2024-03-08T09:37:38;10.33;;;6.20;;
4583;SDS011;2304;47.606;12.186;2024-03-08T09:42:41;15.03;;;6.27;;
4583;SDS011;2304;47.606;12.186;2024-03-08T09:47:43;11.77;;;6.53;;
4583;SDS011;2304;47.606;12.186;2024-03-08T09:52:47;10.60;;;6.53;;
4583;SDS011;2304;47.606;12.186;2024-03-08T09:57:52;11.20;;;7.30;;
4583;SDS011;2304;47.606;12.186;2024-03-08T10:03:09;13.37;;;8.50;;
4583;SDS011;2304;47.606;12.186;2024-03-08T10:08:18;12.80;;;6.40;;
4583;SDS011;2304;47.606;12.186;2024-03-08T10:13:21;11.90;;;7.23;;
4583;SDS011;2304;47.606;12.186;2024-03-08T10:18:24;12.70;;;7.07;;
4583;SDS011;2304;47.606;12.186;2024-03-08T10:23:26;10.90;;;6.40;;
4583;SDS011;2304;47.606;12.186;2024-03-08T10:28:29;14.03;;;7.50;;
4583;SDS011;2304;47.606;12.186;2024-03-08T10:33:31;9.93;;;6.00;;
4583;SDS011;2304;47.606;12.186;2024-03-08T10:38:35;9.37;;;6.03;;
4583;SDS011;2304;47.606;12.186;2024-03-08T10:49:12;11.33;;;6.00;;
4583;SDS011;2304;47.606;12.186;2024-03-08T10:54:18;10.53;;;6.23;;
4583;SDS011;2304;47.606;12.186;2024-03-08T10:59:22;11.90;;;5.90;;
4583;SDS011;2304;47.606;12.186;2024-03-08T11:04:27;11.30;;;5.87;;
4583;SDS011;2304;47.606;12.186;2024-03-08T11:09:29;11.70;;;6.53;;
4583;SDS011;2304;47.606;12.186;2024-03-08T11:14:51;8.57;;;5.80;;
4583;SDS011;2304;47.606;12.186;2024-03-08T11:19:55;11.33;;;5.70;;
4583;SDS011;2304;47.606;12.186;2024-03-08T11:25:01;9.33;;;5.73;;
4583;SDS011;2304;47.606;12.186;2024-03-08T11:30:10;14.63;;;7.80;;
4583;SDS011;2304;47.606;12.186;2024-03-08T11:35:18;10.70;;;7.03;;
4583;SDS011;2304;47.606;12.186;2024-03-08T11:40:20;11.63;;;6.50;;
4583;SDS011;2304;47.606;12.186;2024-03-08T11:45:24;10.57;;;6.53;;
4583;SDS011;2304;47.606;12.186;2024-03-08T11:50:26;12.90;;;6.40;;
4583;SDS011;2304;47.606;12.186;2024-03-08T11:55:28;10.87;;;6.30;;
4583;SDS011;2304;47.606;12.186;2024-03-08T12:00:31;10.80;;;6.30;;
4583;SDS011;2304;47.606;12.186;2024-03-08T12:05:38;7.00;;;4.60;;
4583;SDS011;2304;47.606;12.186;2024-03-08T12:10:40;10.90;;;6.60;;
4583;SDS011;2304;47.606;12.186;2024-03-08T12:15:44;8.93;;;6.10;;
4583;SDS011;2304;47.606;12.186;2024-03-08T12:20:47;8.93;;;5.73;;
4583;SDS011;2304;47.606;12.186;2024-03-08T12:25:50;9.90;;;6.10;;
4583;SDS011;2304;47.606;12.186;2024-03-08T12:30:53;8.20;;;5.70;;
4583;SDS011;2304;47.606;12.186;2024-03-08T12:35:57;10.40;;;5.30;;
4583;SDS011;2304;47.606;12.186;2024-03-08T12:40:59;10.03;;;5.50;;
4583;SDS011;2304;47.606;12.186;2024-03-08T12:46:02;7.67;;;5.10;;
4583;SDS011;2304;47.606;12.186;2024-03-08T12:51:05;10.40;;;5.73;;
4583;SDS011;2304;47.606;12.186;2024-03-08T12:56:07;10.47;;;5.57;;
4583;SDS011;2304;47.606;12.186;2024-03-08T13:01:19;7.03;;;5.17;;
4583;SDS011;2304;47.606;12.186;2024-03-08T13:06:21;6.70;;;4.40;;
4583;SDS011;2304;47.606;12.186;2024-03-08T13:11:24;12.77;;;6.50;;
4583;SDS011;2304;47.606;12.186;2024-03-08T13:16:28;8.90;;;6.10;;
4583;SDS011;2304;47.606;12.186;2024-03-08T13:21:30;10.90;;;6.20;;
4583;SDS011;2304;47.606;12.186;2024-03-08T13:26:33;10.10;;;6.73;;
4583;SDS011;2304;47.606;12.186;2024-03-08T13:31:36;10.70;;;6.93;;
4583;SDS011;2304;47.606;12.186;2024-03-08T13:36:48;9.17;;;6.53;;
4583;SDS011;2304;47.606;12.186;2024-03-08T13:41:51;11.50;;;7.87;;
4583;SDS011;2304;47.606;12.186;2024-03-08T13:46:54;13.40;;;7.87;;
4583;SDS011;2304;47.606;12.186;2024-03-08T13:51:58;11.80;;;8.10;;
4583;SDS011;2304;47.606;12.186;2024-03-08T13:57:00;11.20;;;7.90;;
4583;SDS011;2304;47.606;12.186;2024-03-08T14:02:05;12.10;;;8.83;;
4583;SDS011;2304;47.606;12.186;2024-03-08T14:07:13;13.10;;;8.20;;
4583;SDS011;2304;47.606;12.186;2024-03-08T14:12:19;11.00;;;7.83;;
4583;SDS011;2304;47.606;12.186;2024-03-08T14:17:22;23.73;;;14.43;;
4583;SDS011;2304;47.606;12.186;2024-03-08T14:22:27;16.90;;;11.77;;
4583;SDS011;2304;47.606;12.186;2024-03-08T14:27:31;17.23;;;11.47;;
4583;SDS011;2304;47.606;12.186;2024-03-08T14:32:35;16.23;;;9.60;;
4583;SDS011;2304;47.606;12.186;2024-03-08T14:37:38;13.17;;;9.20;;
4583;SDS011;2304;47.606;12.186;2024-03-08T14:42:41;16.17;;;10.70;;
4583;SDS011;2304;47.606;12.186;2024-03-08T14:47:52;16.73;;;11.37;;
4583;SDS011;2304;47.606;12.186;2024-03-08T14:52:55;16.87;;;11.40;;
4583;SDS011;2304;47.606;12.186;2024-03-08T14:57:56;18.97;;;11.03;;
4583;SDS011;2304;47.606;12.186;2024-03-08T15:03:00;19.10;;;12.10;;
4583;SDS011;2304;47.606;12.186;2024-03-08T15:08:05;19.13;;;12.50;;
4583;SDS011;2304;47.606;12.186;2024-03-08T15:13:10;18.97;;;12.73;;
4583;SDS011;2304;47.606;12.186;2024-03-08T15:18:23;24.23;;;12.40;;
4583;SDS011;2304;47.606;12.186;2024-03-08T15:23:30;18.70;;;12.70;;
4583;SDS011;2304;47.606;12.186;2024-03-08T15:28:32;21.23;;;12.83;;
4583;SDS011;2304;47.606;12.186;2024-03-08T15:33:39;20.40;;;12.97;;
4583;SDS011;2304;47.606;12.186;2024-03-08T15:38:44;19.20;;;13.37;;
4583;SDS011;2304;47.606;12.186;2024-03-08T15:43:46;23.20;;;14.73;;
4583;SDS011;2304;47.606;12.186;2024-03-08T15:48:51;22.13;;;13.73;;
4583;SDS011;2304;47.606;12.186;2024-03-08T15:53:53;23.67;;;15.13;;
4583;SDS011;2304;47.606;12.186;2024-03-08T15:58:56;23.97;;;15.73;;
4583;SDS011;2304;47.606;12.186;2024-03-08T16:03:59;25.43;;;15.20;;
4583;SDS011;2304;47.606;12.186;2024-03-08T16:09:01;21.47;;;14.00;;
4583;SDS011;2304;47.606;12.186;2024-03-08T16:14:03;23.50;;;14.90;;
4583;SDS011;2304;47.606;12.186;2024-03-08T16:19:06;24.70;;;16.10;;
4583;SDS011;2304;47.606;12.186;2024-03-08T16:24:08;68.47;;;41.67;;
4583;SDS011;2304;47.606;12.186;2024-03-08T16:29:10;24.70;;;16.73;;
4583;SDS011;2304;47.606;12.186;2024-03-08T16:34:17;28.33;;;18.17;;
4583;SDS011;2304;47.606;12.186;2024-03-08T16:39:20;27.13;;;17.30;;
4583;SDS011;2304;47.606;12.186;2024-03-08T16:44:23;27.60;;;16.87;;
4583;SDS011;2304;47.606;12.186;2024-03-08T16:49:28;26.90;;;16.37;;
4583;SDS011;2304;47.606;12.186;2024-03-08T16:54:30;30.03;;;18.00;;
4583;SDS011;2304;47.606;12.186;2024-03-08T16:59:33;47.53;;;26.30;;
4583;SDS011;2304;47.606;12.186;2024-03-08T17:04:37;29.97;;;17.87;;
4583;SDS011;2304;47.606;12.186;2024-03-08T17:09:39;25.33;;;16.80;;
4583;SDS011;2304;47.606;12.186;2024-03-08T17:14:41;43.17;;;27.90;;
4583;SDS011;2304;47.606;12.186;2024-03-08T17:19:45;44.33;;;25.70;;
4583;SDS011;2304;47.606;12.186;2024-03-08T17:24:47;42.90;;;26.43;;
4583;SDS011;2304;47.606;12.186;2024-03-08T17:29:50;40.57;;;28.10;;
4583;SDS011;2304;47.606;12.186;2024-03-08T17:34:56;38.10;;;25.50;;
4583;SDS011;2304;47.606;12.186;2024-03-08T17:39:58;98.73;;;56.07;;
4583;SDS011;2304;47.606;12.186;2024-03-08T17:44:59;152.57;;;74.83;;
4583;SDS011;2304;47.606;12.186;2024-03-08T17:50:03;47.53;;;28.10;;
4583;SDS011;2304;47.606;12.186;2024-03-08T17:55:10;37.03;;;21.07;;
4583;SDS011;2304;47.606;12.186;2024-03-08T18:00:14;27.47;;;17.30;;
4583;SDS011;2304;47.606;12.186;2024-03-08T18:05:27;28.07;;;18.23;;
4583;SDS011;2304;47.606;12.186;2024-03-08T18:10:33;45.43;;;26.30;;
4583;SDS011;2304;47.606;12.186;2024-03-08T18:15:35;78.80;;;40.57;;
4583;SDS011;2304;47.606;12.186;2024-03-08T18:20:39;52.10;;;26.20;;
4583;SDS011;2304;47.606;12.186;2024-03-08T18:25:46;29.67;;;17.10;;
4583;SDS011;2304;47.606;12.186;2024-03-08T18:30:48;30.10;;;19.87;;
4583;SDS011;2304;47.606;12.186;2024-03-08T18:35:52;31.30;;;17.30;;
4583;SDS011;2304;47.606;12.186;2024-03-08T18:40:54;45.43;;;30.60;;
4583;SDS011;2304;47.606;12.186;2024-03-08T18:45:57;32.40;;;20.53;;
4583;SDS011;2304;47.606;12.186;2024-03-08T18:51:01;30.83;;;18.40;;
4583;SDS011;2304;47.606;12.186;2024-03-08T18:56:03;39.43;;;20.00;;
4583;SDS011;2304;47.606;12.186;2024-03-08T19:01:07;27.60;;;14.83;;
4583;SDS011;2304;47.606;12.186;2024-03-08T19:06:10;27.27;;;14.87;;
4583;SDS011;2304;47.606;12.186;2024-03-08T19:11:12;34.43;;;17.33;;
4583;SDS011;2304;47.606;12.186;2024-03-08T19:16:14;34.40;;;16.30;;
4583;SDS011;2304;47.606;12.186;2024-03-08T19:21:18;25.53;;;15.60;;
4583;SDS011;2304;47.606;12.186;2024-03-08T19:26:21;19.23;;;11.10;;
4583;SDS011;2304;47.606;12.186;2024-03-08T19:31:22;24.17;;;13.40;;
4583;SDS011;2304;47.606;12.186;2024-03-08T19:36:26;30.93;;;15.47;;
4583;SDS011;2304;47.606;12.186;2024-03-08T19:41:28;20.47;;;11.87;;
4583;SDS011;2304;47.606;12.186;2024-03-08T19:46:31;23.20;;;13.33;;
4583;SDS011;2304;47.606;12.186;2024-03-08T19:51:41;15.27;;;8.10;;
4583;SDS011;2304;47.606;12.186;2024-03-08T19:56:46;13.53;;;8.40;;
4583;SDS011;2304;47.606;12.186;2024-03-08T20:01:48;11.57;;;6.60;;
4583;SDS011;2304;47.606;12.186;2024-03-08T20:06:52;18.03;;;8.93;;
4583;SDS011;2304;47.606;12.186;2024-03-08T20:11:54;15.53;;;8.17;;
4583;SDS011;2304;47.606;12.186;2024-03-08T20:16:56;12.50;;;7.40;;
4583;SDS011;2304;47.606;12.186;2024-03-08T20:22:01;18.77;;;7.37;;
4583;SDS011;2304;47.606;12.186;2024-03-08T20:27:03;18.70;;;8.50;;
4583;SDS011;2304;47.606;12.186;2024-03-08T20:32:05;17.03;;;8.57;;
4583;SDS011;2304;47.606;12.186;2024-03-08T20:37:09;22.77;;;11.70;;
4583;SDS011;2304;47.606;12.186;2024-03-08T20:42:11;20.23;;;9.97;;
4583;SDS011;2304;47.606;12.186;2024-03-08T20:47:13;21.13;;;11.50;;
4583;SDS011;2304;47.606;12.186;2024-03-08T20:52:17;15.87;;;8.80;;
4583;SDS011;2304;47.606;12.186;2024-03-08T20:57:19;19.40;;;11.60;;
4583;SDS011;2304;47.606;12.186;2024-03-08T21:02:21;18.50;;;9.93;;
4583;SDS011;2304;47.606;12.186;2024-03-08T21:07:24;12.13;;;7.77;;
4583;SDS011;2304;47.606;12.186;2024-03-08T21:12:26;14.43;;;8.83;;
4583;SDS011;2304;47.606;12.186;2024-03-08T21:17:28;16.47;;;9.47;;
4583;SDS011;2304;47.606;12.186;2024-03-08T21:22:31;18.77;;;10.60;;
4583;SDS011;2304;47.606;12.186;2024-03-08T21:27:33;19.77;;;11.60;;
4583;SDS011;2304;47.606;12.186;2024-03-08T21:32:35;21.10;;;11.30;;
4583;SDS011;2304;47.606;12.186;2024-03-08T21:37:39;20.73;;;11.20;;
4583;SDS011;2304;47.606;12.186;2024-03-08T21:42:41;16.63;;;9.10;;
4583;SDS011;2304;47.606;12.186;2024-03-08T21:47:43;19.20;;;10.87;;
4583;SDS011;2304;47.606;12.186;2024-03-08T21:52:47;24.67;;;12.90;;
4583;SDS011;2304;47.606;12.186;2024-03-08T21:57:50;20.30;;;11.40;;
4583;SDS011;2304;47.606;12.186;2024-03-08T22:02:52;21.67;;;10.80;;
4583;SDS011;2304;47.606;12.186;2024-03-08T22:07:55;17.80;;;11.50;;
4583;SDS011;2304;47.606;12.186;2024-03-08T22:12:57;16.73;;;8.10;;
4583;SDS011;2304;47.606;12.186;2024-03-08T22:17:59;21.77;;;10.10;;
4583;SDS011;2304;47.606;12.186;2024-03-08T22:23:02;14.90;;;8.63;;
4583;SDS011;2304;47.606;12.186;2024-03-08T22:28:06;13.67;;;8.03;;
4583;SDS011;2304;47.606;12.186;2024-03-08T22:33:07;12.83;;;7.37;;
4583;SDS011;2304;47.606;12.186;2024-03-08T22:38:11;13.73;;;7.30;;
4583;SDS011;2304;47.606;12.186;2024-03-08T22:43:13;12.50;;;6.47;;
4583;SDS011;2304;47.606;12.186;2024-03-08T22:48:16;11.17;;;6.80;;
4583;SDS011;2304;47.606;12.186;2024-03-08T22:53:19;15.00;;;6.87;;
4583;SDS011;2304;47.606;12.186;2024-03-08T22:58:21;10.40;;;6.50;;
4583;SDS011;2304;47.606;12.186;2024-03-08T23:03:23;11.13;;;6.13;;
4583;SDS011;2304;47.606;12.186;2024-03-08T23:08:26;12.13;;;5.40;;
4583;SDS011;2304;47.606;12.186;2024-03-08T23:13:29;8.13;;;4.60;;
4583;SDS011;2304;47.606;12.186;2024-03-08T23:18:34;7.50;;;5.10;;
4583;SDS011;2304;47.606;12.186;2024-03-08T23:23:37;9.23;;;5.80;;
4583;SDS011;2304;47.606;12.186;2024-03-08T23:28:39;8.33;;;5.37;;
4583;SDS011;2304;47.606;12.186;2024-03-08T23:33:41;7.63;;;4.20;;
4583;SDS011;2304;47.606;12.186;2024-03-08T23:38:47;7.17;;;3.90;;
4583;SDS011;2304;47.606;12.186;2024-03-08T23:43:50;5.40;;;3.10;;
4583;SDS011;2304;47.606;12.186;2024-03-08T23:48:53;7.00;;;4.17;;
4583;SDS011;2304;47.606;12.186;2024-03-08T23:53:56;5.90;;;3.77;;
4583;SDS011;2304;47.606;12.186;2024-03-08T23:58:58;7.73;;;4.40;;
